createdAt,value
2023-09-12T00:00:57.174Z,98178.44
2023-09-12T00:03:23.761Z,98179.28
2023-09-12T00:05:57.337Z,98171.75
2023-09-12T00:08:23.839Z,98169.91
2023-09-12T00:11:27.559Z,98162.16
2023-09-12T00:13:54.354Z,98167.78
2023-09-12T00:16:20.982Z,98150.97
2023-09-12T00:18:47.391Z,98154.16
2023-09-12T00:21:13.825Z,98158.69
2023-09-12T00:23:40.221Z,98154.16
2023-09-12T00:26:06.592Z,98148.81
2023-09-12T00:28:34.639Z,98138.13
2023-09-12T00:31:01.005Z,98150.69
2023-09-12T00:33:27.496Z,98160.56
2023-09-12T00:35:54.150Z,98150.97
2023-09-12T00:38:20.561Z,98142.41
2023-09-12T00:40:46.934Z,98145.91
2023-09-12T00:43:13.304Z,98149.38
2023-09-12T00:45:39.816Z,98146.72
2023-09-12T00:48:06.349Z,98135.47
2023-09-12T00:50:32.907Z,98139.75
2023-09-12T00:52:59.275Z,98127.47
2023-09-12T00:55:25.867Z,98118.16
2023-09-12T00:57:52.290Z,98124.00
2023-09-12T01:00:18.750Z,98126.97
2023-09-12T01:02:45.627Z,98135.75
2023-09-12T01:05:12.155Z,98136.84
2023-09-12T01:07:38.593Z,98134.97
2023-09-12T01:10:08.142Z,98127.50
2023-09-12T01:12:34.663Z,98121.66
2023-09-12T01:15:01.294Z,98118.19
2023-09-12T01:17:27.883Z,98115.50
2023-09-12T01:19:54.259Z,98114.69
2023-09-12T01:22:20.560Z,98116.56
2023-09-12T01:25:05.999Z,98110.97
2023-09-12T01:27:35.862Z,98117.38
2023-09-12T01:30:04.711Z,98117.38
2023-09-12T01:32:31.339Z,98114.69
2023-09-12T01:34:57.731Z,98115.78
2023-09-12T01:37:24.198Z,98117.94
2023-09-12T01:39:50.577Z,98117.94
2023-09-12T01:42:18.454Z,98117.94
2023-09-12T01:44:45.267Z,98109.13
2023-09-12T01:47:11.827Z,98108.59
2023-09-12T01:49:38.927Z,98115.53
2023-09-12T01:52:05.345Z,98129.97
2023-09-12T01:54:31.745Z,98127.03
2023-09-12T01:56:58.895Z,98126.50
2023-09-12T01:59:25.763Z,98129.16
2023-09-12T02:01:52.326Z,98139.34
2023-09-12T02:04:18.694Z,98156.97
2023-09-12T02:06:45.061Z,98161.81
2023-09-12T02:09:11.450Z,98171.66
2023-09-12T02:11:37.859Z,98179.97
2023-09-12T02:14:04.327Z,98173.53
2023-09-12T02:16:31.943Z,98171.16
2023-09-12T02:18:58.437Z,98172.47
2023-09-12T02:21:24.879Z,98181.53
2023-09-12T02:23:51.279Z,98174.63
2023-09-12T02:26:17.637Z,98171.44
2023-09-12T02:28:44.329Z,98166.34
2023-09-12T02:31:12.168Z,98162.06
2023-09-12T02:33:39.258Z,98163.66
2023-09-12T02:36:06.161Z,98160.47
2023-09-12T02:38:32.902Z,98166.88
2023-09-12T02:40:59.349Z,98166.31
2023-09-12T02:43:25.730Z,98168.19
2023-09-12T02:45:52.226Z,98177.00
2023-09-12T02:48:18.671Z,98174.06
2023-09-12T02:50:45.779Z,98163.69
2023-09-12T02:53:12.168Z,98163.69
2023-09-12T02:55:42.499Z,98168.75
2023-09-12T02:58:08.875Z,98168.22
2023-09-12T03:00:38.824Z,98163.16
2023-09-12T03:03:05.353Z,98173.06
2023-09-12T03:05:31.878Z,98185.63
2023-09-12T03:07:58.259Z,98204.84
2023-09-12T03:10:24.633Z,98227.00
2023-09-12T03:12:51.028Z,98227.84
2023-09-12T03:15:17.463Z,98246.53
2023-09-12T03:17:43.870Z,98248.66
2023-09-12T03:20:10.606Z,98235.31
2023-09-12T03:22:38.780Z,98230.78
2023-09-12T03:25:05.568Z,98224.38
2023-09-12T03:27:32.107Z,98228.34
2023-09-12T03:29:58.580Z,98228.13
2023-09-12T03:32:25.035Z,98211.00
2023-09-12T03:34:51.457Z,98193.91
2023-09-12T03:37:17.808Z,98189.13
2023-09-12T03:39:44.237Z,98186.47
2023-09-12T03:42:10.631Z,98174.69
2023-09-12T03:44:37.032Z,98171.22
2023-09-12T03:47:03.428Z,98179.75
2023-09-12T03:49:29.855Z,98180.03
2023-09-12T03:51:56.596Z,98180.28
2023-09-12T03:54:23.002Z,98180.56
2023-09-12T03:56:49.423Z,98168.28
2023-09-12T03:59:15.791Z,98176.28
2023-09-12T04:01:42.253Z,98170.66
2023-09-12T04:04:08.773Z,98153.34
2023-09-12T04:06:35.295Z,98160.00
2023-09-12T04:09:01.711Z,98162.94
2023-09-12T04:11:39.565Z,98168.28
2023-09-12T04:14:12.400Z,98167.22
2023-09-12T04:16:38.914Z,98167.22
2023-09-12T04:19:05.411Z,98164.03
2023-09-12T04:21:31.860Z,98179.25
2023-09-12T04:23:58.242Z,98189.94
2023-09-12T04:26:24.623Z,98191.25
2023-09-12T04:28:51.335Z,98189.38
2023-09-12T04:31:17.739Z,98202.75
2023-09-12T04:33:44.166Z,98211.84
2023-09-12T04:36:10.648Z,98215.59
2023-09-12T04:38:38.364Z,98222.00
2023-09-12T04:41:06.871Z,98204.13
2023-09-12T04:43:33.264Z,98223.84
2023-09-12T04:45:59.723Z,98216.91
2023-09-12T04:48:26.250Z,98216.66
2023-09-12T04:50:52.643Z,98205.97
2023-09-12T04:53:19.027Z,98222.53
2023-09-12T04:55:45.415Z,98228.66
2023-09-12T04:58:11.783Z,98239.63
2023-09-12T05:00:39.930Z,98236.97
2023-09-12T05:03:06.376Z,98224.16
2023-09-12T05:05:34.956Z,98229.50
2023-09-12T05:08:01.341Z,98220.97
2023-09-12T05:10:27.693Z,98222.56
2023-09-12T05:12:54.245Z,98220.97
2023-09-12T05:15:20.766Z,98227.09
2023-09-12T05:17:47.210Z,98235.91
2023-09-12T05:20:13.589Z,98235.09
2023-09-12T05:22:39.956Z,98244.72
2023-09-12T05:25:06.461Z,98253.22
2023-09-12T05:27:32.914Z,98240.44
2023-09-12T05:29:59.295Z,98252.72
2023-09-12T05:32:25.783Z,98247.38
2023-09-12T05:34:58.048Z,98249.50
2023-09-12T05:37:29.908Z,98251.38
2023-09-12T05:39:56.279Z,98250.59
2023-09-12T05:42:23.493Z,98250.06
2023-09-12T05:44:50.757Z,98245.53
2023-09-12T05:47:17.167Z,98247.69
2023-09-12T05:49:43.539Z,98259.66
2023-09-12T05:52:09.964Z,98263.41
2023-09-12T05:54:36.413Z,98250.06
2023-09-12T05:57:03.487Z,98230.31
2023-09-12T05:59:30.976Z,98216.69
2023-09-12T06:01:57.361Z,98206.81
2023-09-12T06:04:24.217Z,98196.41
2023-09-12T06:06:50.695Z,98202.03
2023-09-12T06:09:17.081Z,98199.88
2023-09-12T06:11:43.476Z,98190.81
2023-09-12T06:14:09.839Z,98184.66
2023-09-12T06:16:36.272Z,98180.94
2023-09-12T06:19:02.683Z,98176.41
2023-09-12T06:21:29.120Z,98171.84
2023-09-12T06:24:14.590Z,98176.91
2023-09-12T06:26:41.078Z,98173.16
2023-09-12T06:29:07.509Z,98166.75
2023-09-12T06:31:33.924Z,98155.00
2023-09-12T06:34:00.319Z,98144.84
2023-09-12T06:36:26.872Z,98140.31
2023-09-12T06:38:53.265Z,98120.53
2023-09-12T06:41:20.505Z,98130.97
2023-09-12T06:43:46.893Z,98127.72
2023-09-12T06:46:13.289Z,98127.16
2023-09-12T06:48:39.716Z,98121.69
2023-09-12T06:51:11.303Z,98119.25
2023-09-12T06:53:40.376Z,98124.13
2023-09-12T06:56:06.958Z,98119.66
2023-09-12T06:58:33.506Z,98124.72
2023-09-12T07:01:04.176Z,98136.94
2023-09-12T07:03:31.158Z,98132.03
2023-09-12T07:05:57.647Z,98121.59
2023-09-12T07:08:24.021Z,98124.88
2023-09-12T07:10:50.387Z,98127.34
2023-09-12T07:13:16.762Z,98129.66
2023-09-12T07:15:43.243Z,98139.81
2023-09-12T07:18:09.725Z,98140.63
2023-09-12T07:20:36.197Z,98136.84
2023-09-12T07:23:02.576Z,98135.28
2023-09-12T07:25:28.930Z,98135.25
2023-09-12T07:27:55.300Z,98143.03
2023-09-12T07:30:21.741Z,98144.13
2023-09-12T07:32:48.224Z,98156.91
2023-09-12T07:35:14.643Z,98163.63
2023-09-12T07:37:41.160Z,98163.09
2023-09-12T07:40:10.819Z,98165.13
2023-09-12T07:42:37.396Z,98179.03
2023-09-12T07:45:04.564Z,98185.66
2023-09-12T07:47:30.941Z,98187.50
2023-09-12T07:49:57.309Z,98191.50
2023-09-12T07:52:23.828Z,98204.31
2023-09-12T07:54:50.491Z,98212.31
2023-09-12T07:57:16.934Z,98221.94
2023-09-12T07:59:43.735Z,98224.34
2023-09-12T08:02:13.696Z,98227.56
2023-09-12T08:04:40.202Z,98222.72
2023-09-12T08:07:06.759Z,98223.81
2023-09-12T08:09:49.164Z,98223.81
2023-09-12T08:12:15.540Z,98230.16
2023-09-12T08:14:42.239Z,98220.25
2023-09-12T08:17:09.987Z,98226.91
2023-09-12T08:19:36.340Z,98251.75
2023-09-12T08:22:02.985Z,98263.22
2023-09-12T08:24:29.361Z,98269.91
2023-09-12T08:26:55.808Z,98272.31
2023-09-12T08:29:22.178Z,98279.03
2023-09-12T08:31:48.619Z,98288.66
2023-09-12T08:34:15.026Z,98304.19
2023-09-12T08:36:41.477Z,98304.44
2023-09-12T08:39:09.776Z,98311.41
2023-09-12T08:41:36.304Z,98326.91
2023-09-12T08:44:02.714Z,98323.22
2023-09-12T08:46:29.137Z,98324.56
2023-09-12T08:48:56.181Z,98334.72
2023-09-12T08:51:25.720Z,98341.66
2023-09-12T08:53:52.323Z,98336.56
2023-09-12T08:56:18.824Z,98335.53
2023-09-12T08:58:45.227Z,98351.78
2023-09-12T09:01:12.861Z,98357.69
2023-09-12T09:03:39.678Z,98349.91
2023-09-12T09:06:06.094Z,98349.41
2023-09-12T09:08:32.574Z,98341.13
2023-09-12T09:10:59.259Z,98347.81
2023-09-12T09:13:26.275Z,98352.06
2023-09-12T09:16:09.899Z,98364.34
2023-09-12T09:18:55.806Z,98373.94
2023-09-12T09:21:25.449Z,98370.97
2023-09-12T09:23:52.426Z,98367.25
2023-09-12T09:26:18.896Z,98349.41
2023-09-12T09:28:45.287Z,98338.72
2023-09-12T09:31:12.170Z,98334.19
2023-09-12T09:33:39.504Z,98333.94
2023-09-12T09:36:06.485Z,98321.13
2023-09-12T09:38:33.006Z,98309.91
2023-09-12T09:40:59.380Z,98307.53
2023-09-12T09:43:26.125Z,98296.56
2023-09-12T09:45:52.630Z,98301.88
2023-09-12T09:48:20.398Z,98298.41
2023-09-12T09:50:46.823Z,98292.78
2023-09-12T09:53:13.216Z,98293.53
2023-09-12T09:55:39.710Z,98286.06
2023-09-12T09:58:09.045Z,98286.84
2023-09-12T10:00:35.725Z,98281.53
2023-09-12T10:03:02.509Z,98291.91
2023-09-12T10:05:29.144Z,98288.19
2023-09-12T10:07:55.855Z,98286.06
2023-09-12T10:10:22.272Z,98274.59
2023-09-12T10:12:52.642Z,98275.38
2023-09-12T10:15:19.900Z,98268.69
2023-09-12T10:17:47.643Z,98275.63
2023-09-12T10:20:16.127Z,98270.28
2023-09-12T10:22:48.744Z,98278.81
2023-09-12T10:25:15.121Z,98272.94
2023-09-12T10:27:41.549Z,98274.31
2023-09-12T10:30:11.316Z,98272.44
2023-09-12T10:32:37.747Z,98285.78
2023-09-12T10:35:06.180Z,98296.19
2023-09-12T10:37:33.973Z,98294.06
2023-09-12T10:40:00.596Z,98301.00
2023-09-12T10:42:27.362Z,98311.69
2023-09-12T10:44:53.741Z,98331.22
2023-09-12T10:47:20.200Z,98354.75
2023-09-12T10:49:46.710Z,98360.59
2023-09-12T10:52:24.623Z,98333.63
2023-09-12T10:54:51.035Z,98331.22
2023-09-12T10:57:17.766Z,98345.59
2023-09-12T11:00:05.619Z,98339.47
2023-09-12T11:02:32.721Z,98348.28
2023-09-12T11:04:59.905Z,98361.09
2023-09-12T11:07:41.718Z,98353.38
2023-09-12T11:10:11.175Z,98325.59
2023-09-12T11:12:37.697Z,98298.88
2023-09-12T11:15:06.597Z,98303.44
2023-09-12T11:17:38.089Z,98302.63
2023-09-12T11:20:11.126Z,98283.41
2023-09-12T11:22:41.338Z,98274.59
2023-09-12T11:25:17.820Z,98273.47
2023-09-12T11:27:53.599Z,98258.28
2023-09-12T11:30:20.304Z,98250.28
2023-09-12T11:32:47.771Z,98260.16
2023-09-12T11:35:14.356Z,98266.81
2023-09-12T11:37:40.862Z,98287.38
2023-09-12T11:40:13.410Z,98304.72
2023-09-12T11:42:50.830Z,98280.19
2023-09-12T11:45:20.608Z,98271.66
2023-09-12T11:47:47.331Z,98258.56
2023-09-12T11:50:32.527Z,98256.16
2023-09-12T11:52:59.788Z,98251.63
2023-09-12T11:55:26.376Z,98261.00
2023-09-12T11:57:52.770Z,98265.53
2023-09-12T12:00:20.898Z,98267.94
2023-09-12T12:02:47.359Z,98283.41
2023-09-12T12:05:14.077Z,98284.22
2023-09-12T12:07:40.620Z,98263.94
2023-09-12T12:10:06.999Z,98260.19
2023-09-12T12:12:33.710Z,98270.06
2023-09-12T12:15:00.123Z,98263.41
2023-09-12T12:17:26.588Z,98265.00
2023-09-12T12:19:53.955Z,98253.03
2023-09-12T12:22:20.303Z,98241.78
2023-09-12T12:24:47.020Z,98240.19
2023-09-12T12:27:16.030Z,98233.75
2023-09-12T12:29:43.664Z,98236.16
2023-09-12T12:32:10.830Z,98226.81
2023-09-12T12:35:38.452Z,98223.88
2023-09-12T12:37:31.313Z,98228.66
2023-09-12T12:39:58.437Z,98230.81
2023-09-12T12:42:26.146Z,98225.75
2023-09-12T12:44:55.694Z,98225.19
2023-09-12T12:47:22.199Z,98215.84
2023-09-12T12:52:23.186Z,98206.47
2023-09-12T12:54:50.385Z,98201.34
2023-09-12T12:57:19.669Z,98196.25
2023-09-12T12:59:49.262Z,98202.88
2023-09-12T13:02:16.198Z,98194.34
2023-09-12T13:04:42.741Z,98197.25
2023-09-12T13:07:09.246Z,98201.78
2023-09-12T13:09:35.651Z,98189.50
2023-09-12T13:12:02.138Z,98191.09
2023-09-12T13:14:31.998Z,98192.59
2023-09-12T13:16:59.344Z,98190.25
2023-09-12T13:19:26.243Z,98184.75
2023-09-12T13:21:52.650Z,98183.84
2023-09-12T13:24:19.154Z,98176.72
2023-09-12T13:26:45.527Z,98178.38
2023-09-12T13:29:13.447Z,98179.38
2023-09-12T13:31:39.867Z,98178.00
2023-09-12T13:34:06.277Z,98174.53
2023-09-12T13:36:32.854Z,98176.47
2023-09-12T13:38:59.272Z,98174.06
2023-09-12T13:41:26.567Z,98176.44
2023-09-12T13:43:53.264Z,98174.06
2023-09-12T13:46:19.805Z,98164.44
2023-09-12T13:48:47.688Z,98165.44
2023-09-12T13:51:15.381Z,98171.75
2023-09-12T13:53:42.122Z,98164.91
2023-09-12T13:56:13.811Z,98171.34
2023-09-12T13:58:44.393Z,98171.75
2023-09-12T14:01:16.251Z,98180.88
2023-09-12T14:03:48.953Z,98178.81
2023-09-12T14:06:16.028Z,98187.88
2023-09-12T14:08:42.655Z,98186.50
2023-09-12T14:11:15.187Z,98185.88
2023-09-12T14:14:02.905Z,98185.03
2023-09-12T14:16:34.679Z,98189.63
2023-09-12T14:19:01.270Z,98180.25
2023-09-12T14:21:27.867Z,98185.59
2023-09-12T14:23:55.102Z,98179.16
2023-09-12T14:26:21.633Z,98178.09
2023-09-12T14:28:48.545Z,98180.78
2023-09-12T14:31:17.106Z,98173.81
2023-09-12T14:33:43.715Z,98176.50
2023-09-12T14:36:10.597Z,98169.25
2023-09-12T14:38:37.141Z,98165.78
2023-09-12T14:41:03.920Z,98171.13
2023-09-12T14:43:30.313Z,98163.13
2023-09-12T14:45:56.971Z,98161.53
2023-09-12T14:48:23.459Z,98150.03
2023-09-12T14:50:50.242Z,98152.16
2023-09-12T14:53:16.616Z,98160.19
2023-09-12T14:55:43.322Z,98154.31
2023-09-12T14:58:09.735Z,98156.19
2023-09-12T15:00:37.210Z,98156.19
2023-09-12T15:03:03.924Z,98154.59
2023-09-12T15:05:30.405Z,98155.69
2023-09-12T15:07:56.795Z,98154.59
2023-09-12T15:10:23.217Z,98162.38
2023-09-12T15:12:49.634Z,98158.41
2023-09-12T15:15:16.059Z,98152.47
2023-09-12T15:17:42.650Z,98150.88
2023-09-12T15:20:09.286Z,98150.88
2023-09-12T15:22:36.051Z,98150.38
2023-09-12T15:25:02.697Z,98148.50
2023-09-12T15:27:30.153Z,98153.56
2023-09-12T15:29:56.599Z,98144.75
2023-09-12T15:32:22.979Z,98144.75
2023-09-12T15:34:49.335Z,98141.81
2023-09-12T15:37:22.761Z,98145.28
2023-09-12T15:39:49.533Z,98135.41
2023-09-12T15:42:29.630Z,98135.97
2023-09-12T15:45:02.231Z,98133.56
2023-09-12T15:47:29.636Z,98127.41
2023-09-12T15:49:56.221Z,98132.78
2023-09-12T15:52:22.594Z,98123.44
2023-09-12T15:54:49.963Z,98118.09
2023-09-12T15:57:16.463Z,98109.56
2023-09-12T15:59:42.845Z,98112.50
2023-09-12T16:02:09.573Z,98101.03
2023-09-12T16:04:35.988Z,98098.66
2023-09-12T16:07:02.491Z,98088.75
2023-09-12T16:09:29.005Z,98089.81
2023-09-12T16:11:55.394Z,98097.03
2023-09-12T16:14:21.755Z,98098.66
2023-09-12T16:16:48.185Z,98095.72
2023-09-12T16:19:14.632Z,98100.78
2023-09-12T16:21:41.073Z,98099.69
2023-09-12T16:24:07.532Z,98109.88
2023-09-12T16:26:33.981Z,98097.31
2023-09-12T16:29:00.344Z,98096.53
2023-09-12T16:31:26.912Z,98104.53
2023-09-12T16:33:53.595Z,98104.25
2023-09-12T16:36:20.027Z,98106.94
2023-09-12T16:38:46.368Z,98111.47
2023-09-12T16:41:12.897Z,98108.28
2023-09-12T16:43:39.926Z,98120.03
2023-09-12T16:46:06.360Z,98118.97
2023-09-12T16:48:32.847Z,98122.72
2023-09-12T16:50:59.232Z,98116.31
2023-09-12T16:53:25.641Z,98117.94
2023-09-12T16:55:52.260Z,98125.66
2023-09-12T16:58:18.614Z,98124.38
2023-09-12T17:00:45.013Z,98129.41
2023-09-12T17:03:11.515Z,98132.13
2023-09-12T17:05:37.937Z,98136.69
2023-09-12T17:08:04.392Z,98135.09
2023-09-12T17:10:30.778Z,98134.25
2023-09-12T17:12:57.177Z,98137.75
2023-09-12T17:15:26.017Z,98137.31
2023-09-12T17:17:52.577Z,98140.59
2023-09-12T17:20:19.001Z,98143.75
2023-09-12T17:22:45.420Z,98136.56
2023-09-12T17:25:13.694Z,98133.91
2023-09-12T17:27:40.938Z,98127.31
2023-09-12T17:30:08.549Z,98131.34
2023-09-12T17:32:34.927Z,98132.44
2023-09-12T17:35:03.760Z,98139.34
2023-09-12T17:37:30.709Z,98136.97
2023-09-12T17:39:58.587Z,98140.19
2023-09-12T17:42:25.640Z,98141.28
2023-09-12T17:44:52.060Z,98148.72
2023-09-12T17:47:20.135Z,98144.00
2023-09-12T17:49:48.076Z,98143.19
2023-09-12T17:52:14.848Z,98148.25
2023-09-12T17:54:45.020Z,98138.06
2023-09-12T17:57:12.188Z,98147.44
2023-09-12T17:59:42.262Z,98138.69
2023-09-12T18:02:08.935Z,98145.06
2023-09-12T18:04:35.558Z,98139.97
2023-09-12T18:07:05.958Z,98150.41
2023-09-12T18:09:33.949Z,98151.97
2023-09-12T18:12:00.423Z,98156.28
2023-09-12T18:14:26.833Z,98151.19
2023-09-12T18:16:53.595Z,98147.22
2023-09-12T18:19:20.017Z,98149.31
2023-09-12T18:21:46.472Z,98148.53
2023-09-12T18:24:13.280Z,98154.13
2023-09-12T18:26:40.274Z,98152.78
2023-09-12T18:29:06.648Z,98155.50
2023-09-12T18:31:33.038Z,98164.00
2023-09-12T18:33:59.448Z,98168.53
2023-09-12T18:36:27.426Z,98174.94
2023-09-12T18:38:53.800Z,98184.81
2023-09-12T18:41:20.663Z,98184.31
2023-09-12T18:43:47.298Z,98178.16
2023-09-12T18:46:13.769Z,98171.22
2023-09-12T18:48:41.253Z,98163.50
2023-09-12T18:51:07.950Z,98163.22
2023-09-12T18:53:34.385Z,98167.50
2023-09-12T18:56:00.943Z,98175.50
2023-09-12T18:58:27.438Z,98177.09
2023-09-12T19:00:53.901Z,98168.56
2023-09-12T19:03:20.481Z,98165.66
2023-09-12T19:05:47.336Z,98160.03
2023-09-12T19:08:14.015Z,98152.31
2023-09-12T19:10:40.392Z,98159.50
2023-09-12T19:13:08.925Z,98154.72
2023-09-12T19:15:36.915Z,98156.06
2023-09-12T19:18:03.945Z,98151.00
2023-09-12T19:20:30.403Z,98156.34
2023-09-12T19:22:56.837Z,98150.47
2023-09-12T19:25:23.207Z,98163.00
2023-09-12T19:27:49.583Z,98166.19
2023-09-12T19:30:16.010Z,98169.66
2023-09-12T19:32:42.502Z,98158.19
2023-09-12T19:35:09.103Z,98156.59
2023-09-12T19:37:35.789Z,98147.53
2023-09-12T19:40:03.553Z,98141.41
2023-09-12T19:42:32.259Z,98141.16
2023-09-12T19:44:58.718Z,98146.22
2023-09-12T19:47:25.356Z,98142.75
2023-09-12T19:49:52.377Z,98133.97
2023-09-12T19:52:21.498Z,98128.91
2023-09-12T19:54:47.917Z,98116.34
2023-09-12T19:57:14.307Z,98130.75
2023-09-12T19:59:40.735Z,98133.66
2023-09-12T20:02:08.075Z,98133.41
2023-09-12T20:04:35.608Z,98127.25
2023-09-12T20:07:02.351Z,98118.47
2023-09-12T20:09:28.763Z,98123.00
2023-09-12T20:11:55.409Z,98124.03
2023-09-12T20:14:21.821Z,98130.16
2023-09-12T20:16:48.558Z,98126.47
2023-09-12T20:19:15.120Z,98129.41
2023-09-12T20:21:41.576Z,98125.13
2023-09-12T20:24:08.130Z,98125.41
2023-09-12T20:26:34.811Z,98121.13
2023-09-12T20:29:01.364Z,98122.25
2023-09-12T20:31:27.735Z,98115.03
2023-09-12T20:33:55.753Z,98099.81
2023-09-12T20:36:22.396Z,98093.16
2023-09-12T20:38:49.142Z,98086.75
2023-09-12T20:41:15.728Z,98093.44
2023-09-12T20:43:42.284Z,98093.94
2023-09-12T20:46:11.162Z,98096.34
2023-09-12T20:48:40.894Z,98106.19
2023-09-12T20:51:11.114Z,98103.28
2023-09-12T20:53:37.887Z,98121.41
2023-09-12T20:56:05.305Z,98120.31
2023-09-12T20:58:31.754Z,98124.34
2023-09-12T21:00:58.403Z,98105.69
2023-09-12T21:03:24.962Z,98090.75
2023-09-12T21:05:51.355Z,98074.75
2023-09-12T21:08:17.879Z,98067.28
2023-09-12T21:10:44.975Z,98079.03
2023-09-12T21:13:12.798Z,98089.16
2023-09-12T21:15:39.548Z,98092.09
2023-09-12T21:18:05.961Z,98099.56
2023-09-12T21:20:32.416Z,98096.34
2023-09-12T21:22:58.990Z,98079.03
2023-09-12T21:25:25.365Z,98101.38
2023-09-12T21:27:51.747Z,98088.31
2023-09-12T21:30:18.140Z,98083.75
2023-09-12T21:32:44.636Z,98092.53
2023-09-12T21:35:12.066Z,98069.31
2023-09-12T21:37:38.429Z,98094.41
2023-09-12T21:40:05.038Z,98062.66
2023-09-12T21:42:31.466Z,98085.31
2023-09-12T21:44:57.842Z,98071.41
2023-09-12T21:47:24.462Z,98015.41
2023-09-12T21:49:50.882Z,98009.25
2023-09-12T21:52:17.585Z,98052.19
2023-09-12T21:54:44.085Z,98063.66
2023-09-12T21:57:10.618Z,98036.19
2023-09-12T21:59:36.986Z,98052.19
2023-09-12T22:02:03.545Z,98048.97
2023-09-12T22:04:30.062Z,98051.63
2023-09-12T22:06:56.482Z,98033.28
2023-09-12T22:09:25.974Z,98045.50
2023-09-12T22:11:52.964Z,98068.19
2023-09-12T22:14:19.360Z,98079.66
2023-09-12T22:16:45.893Z,98082.84
2023-09-12T22:19:12.318Z,98082.84
2023-09-12T22:21:38.808Z,98082.59
2023-09-12T22:24:05.407Z,98086.03
2023-09-12T22:26:32.323Z,98073.50
2023-09-12T22:28:58.679Z,98073.50
2023-09-12T22:31:25.156Z,98070.53
2023-09-12T22:33:51.702Z,98073.75
2023-09-12T22:36:20.530Z,98066.00
2023-09-12T22:38:47.212Z,98061.47
2023-09-12T22:41:13.671Z,98059.84
2023-09-12T22:43:40.028Z,98068.13
2023-09-12T22:46:06.434Z,98067.34
2023-09-12T22:48:32.888Z,98062.78
2023-09-12T22:50:59.366Z,98059.63
2023-09-12T22:53:25.734Z,98049.75
2023-09-12T22:55:52.149Z,98051.63
2023-09-12T22:58:18.641Z,98059.34
2023-09-12T23:00:45.206Z,98063.09
2023-09-12T23:03:12.197Z,98072.69
2023-09-12T23:05:39.046Z,98087.09
2023-09-12T23:08:05.538Z,98080.44
2023-09-12T23:10:31.911Z,98061.75
2023-09-12T23:12:58.779Z,98045.75
2023-09-12T23:15:25.228Z,98031.31
2023-09-12T23:17:51.908Z,98026.81
2023-09-12T23:20:18.298Z,98022.25
2023-09-12T23:22:50.508Z,98027.59
2023-09-12T23:25:17.108Z,98017.97
2023-09-12T23:27:43.724Z,98019.84
2023-09-12T23:30:10.340Z,98017.72
2023-09-12T23:32:37.206Z,98019.31
2023-09-12T23:35:03.830Z,98024.94
2023-09-12T23:37:31.714Z,98021.97
2023-09-12T23:39:58.327Z,98038.00
2023-09-12T23:42:24.788Z,98042.25
2023-09-12T23:44:51.234Z,98025.44
2023-09-12T23:47:17.700Z,98032.38
2023-09-12T23:49:44.104Z,98029.69
2023-09-12T23:52:10.867Z,98022.50
2023-09-12T23:54:38.507Z,98017.16
2023-09-12T23:57:05.184Z,98015.28
2023-09-12T23:59:31.621Z,98021.44
